Alpine, Wyoming
Current Conditions -  °F | °C
As of 8:55 AM on Sunday 23 Nov 2014 (Local Time) from KAFO Reporting Station
Broken Clouds Broken Clouds  
Wind Chill: -9°   Ceiling: 4800
Heat Index: -4°   Visibility: 10mi
Dew Point: -8°   Wind: 9mph
Humidity: 74%   Direction: 310°NW
Pressure: 30.06"   Gusts: NA
Location:  43.18°N, 111.03°W
Report Text: KAFO 231555Z AUTO 31008KT 10SM BKN048 BKN070 BKN080 M04/M08 A3006 RMK AO2
Loading
Personal Weather Stations






























Interactive Weather Map New forecast layout! Learn more

10-Day Weather Forecast

Advertisements
Track Severe Weather on mobile